sensor_id;sensor_type;location;lat;lon;timestamp;P1;durP1;ratioP1;P2;durP2;ratioP2
32918;SDS011;19280;42.646;21.150;2022-09-09T00:00:50;18.05;;;8.45;;
32918;SDS011;19280;42.646;21.150;2022-09-09T00:03:27;19.97;;;8.53;;
32918;SDS011;19280;42.646;21.150;2022-09-09T00:06:08;18.85;;;8.80;;
32918;SDS011;19280;42.646;21.150;2022-09-09T00:11:08;15.00;;;8.90;;
32918;SDS011;19280;42.646;21.150;2022-09-09T00:13:39;16.02;;;8.27;;
32918;SDS011;19280;42.646;21.150;2022-09-09T00:16:22;20.13;;;9.55;;
32918;SDS011;19280;42.646;21.150;2022-09-09T00:21:21;13.40;;;8.80;;
32918;SDS011;19280;42.646;21.150;2022-09-09T00:23:50;16.30;;;10.23;;
32918;SDS011;19280;42.646;21.150;2022-09-09T00:26:21;19.98;;;9.65;;
32918;SDS011;19280;42.646;21.150;2022-09-09T00:28:54;13.27;;;9.65;;
32918;SDS011;19280;42.646;21.150;2022-09-09T00:31:26;17.88;;;10.55;;
32918;SDS011;19280;42.646;21.150;2022-09-09T00:36:21;20.48;;;10.40;;
32918;SDS011;19280;42.646;21.150;2022-09-09T00:38:52;15.40;;;10.23;;
32918;SDS011;19280;42.646;21.150;2022-09-09T00:44:14;16.13;;;10.65;;
32918;SDS011;19280;42.646;21.150;2022-09-09T00:49:22;18.92;;;10.45;;
32918;SDS011;19280;42.646;21.150;2022-09-09T00:54:28;24.58;;;10.27;;
32918;SDS011;19280;42.646;21.150;2022-09-09T00:59:43;15.70;;;9.75;;
32918;SDS011;19280;42.646;21.150;2022-09-09T01:02:16;19.40;;;11.10;;
32918;SDS011;19280;42.646;21.150;2022-09-09T01:04:49;15.98;;;10.95;;
32918;SDS011;19280;42.646;21.150;2022-09-09T01:07:18;16.08;;;10.23;;
32918;SDS011;19280;42.646;21.150;2022-09-09T01:09:51;14.88;;;10.23;;
32918;SDS011;19280;42.646;21.150;2022-09-09T01:12:40;22.65;;;11.02;;
32918;SDS011;19280;42.646;21.150;2022-09-09T01:15:10;21.90;;;10.48;;
32918;SDS011;19280;42.646;21.150;2022-09-09T01:17:46;18.20;;;10.40;;
32918;SDS011;19280;42.646;21.150;2022-09-09T01:20:24;18.85;;;10.38;;
32918;SDS011;19280;42.646;21.150;2022-09-09T01:22:57;17.80;;;10.50;;
32918;SDS011;19280;42.646;21.150;2022-09-09T01:28:01;18.67;;;10.07;;
32918;SDS011;19280;42.646;21.150;2022-09-09T01:30:31;15.88;;;10.82;;
32918;SDS011;19280;42.646;21.150;2022-09-09T01:32:59;20.90;;;10.77;;
32918;SDS011;19280;42.646;21.150;2022-09-09T01:38:09;22.05;;;11.07;;
32918;SDS011;19280;42.646;21.150;2022-09-09T01:40:36;17.48;;;11.52;;
32918;SDS011;19280;42.646;21.150;2022-09-09T01:43:05;20.77;;;11.23;;
32918;SDS011;19280;42.646;21.150;2022-09-09T01:45:33;18.52;;;10.82;;
32918;SDS011;19280;42.646;21.150;2022-09-09T01:48:00;25.52;;;11.15;;
32918;SDS011;19280;42.646;21.150;2022-09-09T01:50:29;19.13;;;11.40;;
32918;SDS011;19280;42.646;21.150;2022-09-09T01:52:59;22.20;;;12.90;;
32918;SDS011;19280;42.646;21.150;2022-09-09T01:55:30;22.00;;;13.98;;
32918;SDS011;19280;42.646;21.150;2022-09-09T02:01:02;19.23;;;13.57;;
32918;SDS011;19280;42.646;21.150;2022-09-09T02:03:33;18.67;;;12.15;;
32918;SDS011;19280;42.646;21.150;2022-09-09T02:08:52;20.13;;;11.68;;
32918;SDS011;19280;42.646;21.150;2022-09-09T02:11:25;18.20;;;12.65;;
32918;SDS011;19280;42.646;21.150;2022-09-09T02:13:53;25.17;;;12.57;;
32918;SDS011;19280;42.646;21.150;2022-09-09T02:16:23;19.85;;;12.35;;
32918;SDS011;19280;42.646;21.150;2022-09-09T02:19:02;19.05;;;10.98;;
32918;SDS011;19280;42.646;21.150;2022-09-09T02:21:33;19.20;;;12.47;;
32918;SDS011;19280;42.646;21.150;2022-09-09T02:24:05;23.58;;;11.98;;
32918;SDS011;19280;42.646;21.150;2022-09-09T02:26:38;28.13;;;12.02;;
32918;SDS011;19280;42.646;21.150;2022-09-09T02:29:08;14.45;;;10.70;;
32918;SDS011;19280;42.646;21.150;2022-09-09T02:31:35;20.42;;;11.68;;
32918;SDS011;19280;42.646;21.150;2022-09-09T02:34:03;19.83;;;11.60;;
32918;SDS011;19280;42.646;21.150;2022-09-09T02:36:32;20.35;;;12.70;;
32918;SDS011;19280;42.646;21.150;2022-09-09T02:39:01;20.20;;;12.02;;
32918;SDS011;19280;42.646;21.150;2022-09-09T02:44:29;25.73;;;12.50;;
32918;SDS011;19280;42.646;21.150;2022-09-09T02:55:04;20.90;;;12.07;;
32918;SDS011;19280;42.646;21.150;2022-09-09T02:59:59;16.25;;;11.85;;
32918;SDS011;19280;42.646;21.150;2022-09-09T03:02:27;21.35;;;13.05;;
32918;SDS011;19280;42.646;21.150;2022-09-09T03:04:54;16.90;;;13.00;;
32918;SDS011;19280;42.646;21.150;2022-09-09T03:07:21;19.73;;;12.50;;
32918;SDS011;19280;42.646;21.150;2022-09-09T03:09:48;25.20;;;11.73;;
32918;SDS011;19280;42.646;21.150;2022-09-09T03:12:18;15.63;;;11.73;;
32918;SDS011;19280;42.646;21.150;2022-09-09T03:14:46;21.02;;;13.38;;
32918;SDS011;19280;42.646;21.150;2022-09-09T03:17:13;23.45;;;13.40;;
32918;SDS011;19280;42.646;21.150;2022-09-09T03:19:40;21.33;;;12.32;;
32918;SDS011;19280;42.646;21.150;2022-09-09T03:22:09;22.02;;;11.75;;
32918;SDS011;19280;42.646;21.150;2022-09-09T03:24:37;22.42;;;12.73;;
32918;SDS011;19280;42.646;21.150;2022-09-09T03:27:04;17.50;;;12.77;;
32918;SDS011;19280;42.646;21.150;2022-09-09T03:29:32;19.52;;;12.05;;
32918;SDS011;19280;42.646;21.150;2022-09-09T03:32:00;23.40;;;12.48;;
32918;SDS011;19280;42.646;21.150;2022-09-09T03:34:28;19.90;;;12.98;;
32918;SDS011;19280;42.646;21.150;2022-09-09T03:36:54;19.55;;;13.07;;
32918;SDS011;19280;42.646;21.150;2022-09-09T03:39:22;18.05;;;12.13;;
32918;SDS011;19280;42.646;21.150;2022-09-09T03:41:49;21.55;;;13.00;;
32918;SDS011;19280;42.646;21.150;2022-09-09T03:44:16;19.95;;;12.70;;
32918;SDS011;19280;42.646;21.150;2022-09-09T03:46:44;18.13;;;12.82;;
32918;SDS011;19280;42.646;21.150;2022-09-09T03:49:12;18.25;;;12.52;;
32918;SDS011;19280;42.646;21.150;2022-09-09T03:51:39;18.58;;;11.63;;
32918;SDS011;19280;42.646;21.150;2022-09-09T03:54:06;23.02;;;12.25;;
32918;SDS011;19280;42.646;21.150;2022-09-09T03:56:36;19.27;;;12.93;;
32918;SDS011;19280;42.646;21.150;2022-09-09T03:59:03;22.35;;;11.65;;
32918;SDS011;19280;42.646;21.150;2022-09-09T04:01:29;21.92;;;11.98;;
32918;SDS011;19280;42.646;21.150;2022-09-09T04:03:56;14.77;;;11.32;;
32918;SDS011;19280;42.646;21.150;2022-09-09T04:06:24;18.52;;;12.30;;
32918;SDS011;19280;42.646;21.150;2022-09-09T04:08:51;18.77;;;11.77;;
32918;SDS011;19280;42.646;21.150;2022-09-09T04:11:18;22.00;;;12.50;;
32918;SDS011;19280;42.646;21.150;2022-09-09T04:13:45;18.10;;;12.27;;
32918;SDS011;19280;42.646;21.150;2022-09-09T04:16:12;22.92;;;12.80;;
32918;SDS011;19280;42.646;21.150;2022-09-09T04:18:38;23.90;;;12.80;;
32918;SDS011;19280;42.646;21.150;2022-09-09T04:21:05;22.27;;;12.00;;
32918;SDS011;19280;42.646;21.150;2022-09-09T04:23:33;19.63;;;11.43;;
32918;SDS011;19280;42.646;21.150;2022-09-09T04:29:00;18.90;;;12.68;;
32918;SDS011;19280;42.646;21.150;2022-09-09T04:31:26;13.70;;;11.43;;
32918;SDS011;19280;42.646;21.150;2022-09-09T04:33:53;13.68;;;10.75;;
32918;SDS011;19280;42.646;21.150;2022-09-09T04:36:20;19.95;;;11.93;;
32918;SDS011;19280;42.646;21.150;2022-09-09T04:38:47;19.35;;;11.30;;
32918;SDS011;19280;42.646;21.150;2022-09-09T04:41:23;17.95;;;11.65;;
32918;SDS011;19280;42.646;21.150;2022-09-09T04:43:50;18.98;;;11.10;;
32918;SDS011;19280;42.646;21.150;2022-09-09T04:46:19;16.15;;;10.68;;
32918;SDS011;19280;42.646;21.150;2022-09-09T04:48:48;15.07;;;10.52;;
32918;SDS011;19280;42.646;21.150;2022-09-09T04:51:15;19.08;;;10.93;;
32918;SDS011;19280;42.646;21.150;2022-09-09T04:53:42;14.90;;;10.80;;
32918;SDS011;19280;42.646;21.150;2022-09-09T04:59:08;16.50;;;10.48;;
32918;SDS011;19280;42.646;21.150;2022-09-09T05:01:35;17.13;;;11.15;;
32918;SDS011;19280;42.646;21.150;2022-09-09T05:04:02;12.70;;;10.40;;
32918;SDS011;19280;42.646;21.150;2022-09-09T05:06:29;20.77;;;11.30;;
32918;SDS011;19280;42.646;21.150;2022-09-09T05:08:56;18.23;;;11.15;;
32918;SDS011;19280;42.646;21.150;2022-09-09T05:11:28;20.13;;;12.20;;
32918;SDS011;19280;42.646;21.150;2022-09-09T05:13:55;14.98;;;10.25;;
32918;SDS011;19280;42.646;21.150;2022-09-09T05:16:22;20.20;;;10.02;;
32918;SDS011;19280;42.646;21.150;2022-09-09T05:18:50;18.35;;;9.32;;
32918;SDS011;19280;42.646;21.150;2022-09-09T05:21:17;17.55;;;9.20;;
32918;SDS011;19280;42.646;21.150;2022-09-09T05:23:44;20.48;;;9.07;;
32918;SDS011;19280;42.646;21.150;2022-09-09T05:26:13;18.42;;;9.40;;
32918;SDS011;19280;42.646;21.150;2022-09-09T05:28:39;20.65;;;9.95;;
32918;SDS011;19280;42.646;21.150;2022-09-09T05:31:07;11.40;;;9.02;;
32918;SDS011;19280;42.646;21.150;2022-09-09T05:33:35;18.23;;;10.38;;
32918;SDS011;19280;42.646;21.150;2022-09-09T05:36:06;25.92;;;11.38;;
32918;SDS011;19280;42.646;21.150;2022-09-09T05:38:33;22.58;;;10.27;;
32918;SDS011;19280;42.646;21.150;2022-09-09T05:44:00;17.98;;;10.35;;
32918;SDS011;19280;42.646;21.150;2022-09-09T05:46:27;17.90;;;10.82;;
32918;SDS011;19280;42.646;21.150;2022-09-09T05:48:54;16.58;;;10.15;;
32918;SDS011;19280;42.646;21.150;2022-09-09T05:51:25;20.77;;;10.25;;
32918;SDS011;19280;42.646;21.150;2022-09-09T05:53:53;22.40;;;11.35;;
32918;SDS011;19280;42.646;21.150;2022-09-09T05:56:27;15.52;;;10.80;;
32918;SDS011;19280;42.646;21.150;2022-09-09T05:58:55;17.20;;;10.95;;
32918;SDS011;19280;42.646;21.150;2022-09-09T06:01:23;20.70;;;11.27;;
32918;SDS011;19280;42.646;21.150;2022-09-09T06:03:50;22.58;;;10.88;;
32918;SDS011;19280;42.646;21.150;2022-09-09T06:06:18;18.65;;;11.45;;
32918;SDS011;19280;42.646;21.150;2022-09-09T06:08:46;20.58;;;11.43;;
32918;SDS011;19280;42.646;21.150;2022-09-09T06:11:17;23.30;;;11.60;;
32918;SDS011;19280;42.646;21.150;2022-09-09T06:13:44;30.67;;;14.27;;
32918;SDS011;19280;42.646;21.150;2022-09-09T06:16:12;21.15;;;13.65;;
32918;SDS011;19280;42.646;21.150;2022-09-09T06:18:39;21.00;;;13.40;;
32918;SDS011;19280;42.646;21.150;2022-09-09T06:21:07;22.20;;;13.43;;
32918;SDS011;19280;42.646;21.150;2022-09-09T06:23:35;19.77;;;12.43;;
32918;SDS011;19280;42.646;21.150;2022-09-09T06:26:06;21.17;;;13.90;;
32918;SDS011;19280;42.646;21.150;2022-09-09T06:28:36;28.15;;;14.18;;
32918;SDS011;19280;42.646;21.150;2022-09-09T06:31:04;27.23;;;13.38;;
32918;SDS011;19280;42.646;21.150;2022-09-09T06:33:32;19.87;;;14.07;;
32918;SDS011;19280;42.646;21.150;2022-09-09T06:36:00;28.00;;;14.82;;
32918;SDS011;19280;42.646;21.150;2022-09-09T06:38:27;27.55;;;15.23;;
32918;SDS011;19280;42.646;21.150;2022-09-09T06:40:55;30.83;;;16.38;;
32918;SDS011;19280;42.646;21.150;2022-09-09T06:43:23;25.92;;;15.38;;
32918;SDS011;19280;42.646;21.150;2022-09-09T06:45:54;23.38;;;14.10;;
32918;SDS011;19280;42.646;21.150;2022-09-09T06:48:21;21.88;;;16.58;;
32918;SDS011;19280;42.646;21.150;2022-09-09T06:50:48;20.75;;;15.48;;
32918;SDS011;19280;42.646;21.150;2022-09-09T06:53:16;33.65;;;18.40;;
32918;SDS011;19280;42.646;21.150;2022-09-09T06:55:45;32.42;;;17.33;;
32918;SDS011;19280;42.646;21.150;2022-09-09T06:58:12;37.35;;;18.80;;
32918;SDS011;19280;42.646;21.150;2022-09-09T07:00:38;31.92;;;18.63;;
32918;SDS011;19280;42.646;21.150;2022-09-09T07:03:05;31.75;;;17.23;;
32918;SDS011;19280;42.646;21.150;2022-09-09T07:05:32;26.98;;;18.13;;
32918;SDS011;19280;42.646;21.150;2022-09-09T07:07:58;31.33;;;18.13;;
32918;SDS011;19280;42.646;21.150;2022-09-09T07:10:25;33.50;;;17.38;;
32918;SDS011;19280;42.646;21.150;2022-09-09T07:12:52;30.70;;;18.13;;
32918;SDS011;19280;42.646;21.150;2022-09-09T07:15:19;33.20;;;18.02;;
32918;SDS011;19280;42.646;21.150;2022-09-09T07:17:47;36.20;;;19.45;;
32918;SDS011;19280;42.646;21.150;2022-09-09T07:20:14;41.17;;;20.42;;
32918;SDS011;19280;42.646;21.150;2022-09-09T07:22:41;32.22;;;18.67;;
32918;SDS011;19280;42.646;21.150;2022-09-09T07:25:07;33.38;;;19.90;;
32918;SDS011;19280;42.646;21.150;2022-09-09T07:27:34;33.40;;;19.42;;
32918;SDS011;19280;42.646;21.150;2022-09-09T07:30:01;30.95;;;18.65;;
32918;SDS011;19280;42.646;21.150;2022-09-09T07:32:27;26.98;;;16.67;;
32918;SDS011;19280;42.646;21.150;2022-09-09T07:34:55;31.00;;;18.05;;
32918;SDS011;19280;42.646;21.150;2022-09-09T07:37:23;27.70;;;17.63;;
32918;SDS011;19280;42.646;21.150;2022-09-09T07:39:50;36.40;;;22.30;;
32918;SDS011;19280;42.646;21.150;2022-09-09T07:42:17;41.45;;;22.92;;
32918;SDS011;19280;42.646;21.150;2022-09-09T07:44:44;37.53;;;22.05;;
32918;SDS011;19280;42.646;21.150;2022-09-09T07:47:11;34.08;;;20.58;;
32918;SDS011;19280;42.646;21.150;2022-09-09T07:49:38;34.53;;;18.88;;
32918;SDS011;19280;42.646;21.150;2022-09-09T07:52:04;35.30;;;18.05;;
32918;SDS011;19280;42.646;21.150;2022-09-09T07:54:31;34.00;;;17.25;;
32918;SDS011;19280;42.646;21.150;2022-09-09T07:56:58;33.15;;;17.58;;
32918;SDS011;19280;42.646;21.150;2022-09-09T07:59:25;27.88;;;16.70;;
32918;SDS011;19280;42.646;21.150;2022-09-09T08:01:53;29.20;;;17.90;;
32918;SDS011;19280;42.646;21.150;2022-09-09T08:04:21;28.77;;;18.05;;
32918;SDS011;19280;42.646;21.150;2022-09-09T08:06:52;31.17;;;19.10;;
32918;SDS011;19280;42.646;21.150;2022-09-09T08:09:20;30.05;;;18.95;;
32918;SDS011;19280;42.646;21.150;2022-09-09T08:14:45;27.92;;;18.60;;
32918;SDS011;19280;42.646;21.150;2022-09-09T08:17:14;34.33;;;19.10;;
32918;SDS011;19280;42.646;21.150;2022-09-09T08:19:41;30.63;;;18.98;;
32918;SDS011;19280;42.646;21.150;2022-09-09T08:22:07;34.22;;;18.58;;
32918;SDS011;19280;42.646;21.150;2022-09-09T08:24:34;27.77;;;17.92;;
32918;SDS011;19280;42.646;21.150;2022-09-09T08:27:01;32.53;;;18.92;;
32918;SDS011;19280;42.646;21.150;2022-09-09T08:29:28;32.90;;;18.77;;
32918;SDS011;19280;42.646;21.150;2022-09-09T08:31:55;30.67;;;19.42;;
32918;SDS011;19280;42.646;21.150;2022-09-09T08:34:23;37.28;;;20.33;;
32918;SDS011;19280;42.646;21.150;2022-09-09T08:36:52;31.40;;;19.60;;
32918;SDS011;19280;42.646;21.150;2022-09-09T08:39:20;35.97;;;21.85;;
32918;SDS011;19280;42.646;21.150;2022-09-09T08:44:28;33.35;;;21.85;;
32918;SDS011;19280;42.646;21.150;2022-09-09T08:47:05;35.60;;;21.75;;
32918;SDS011;19280;42.646;21.150;2022-09-09T08:52:21;30.85;;;19.40;;
32918;SDS011;19280;42.646;21.150;2022-09-09T08:54:49;29.52;;;18.92;;
32918;SDS011;19280;42.646;21.150;2022-09-09T08:57:20;28.35;;;18.27;;
32918;SDS011;19280;42.646;21.150;2022-09-09T08:59:52;31.73;;;18.80;;
32918;SDS011;19280;42.646;21.150;2022-09-09T09:07:41;33.00;;;18.52;;
32918;SDS011;19280;42.646;21.150;2022-09-09T09:10:16;32.40;;;20.20;;
32918;SDS011;19280;42.646;21.150;2022-09-09T09:12:45;31.40;;;19.90;;
32918;SDS011;19280;42.646;21.150;2022-09-09T09:15:21;35.10;;;20.98;;
32918;SDS011;19280;42.646;21.150;2022-09-09T09:17:49;38.53;;;22.42;;
32918;SDS011;19280;42.646;21.150;2022-09-09T09:20:16;34.10;;;21.45;;
32918;SDS011;19280;42.646;21.150;2022-09-09T09:22:50;36.97;;;22.33;;
32918;SDS011;19280;42.646;21.150;2022-09-09T09:30:21;34.50;;;21.88;;
32918;SDS011;19280;42.646;21.150;2022-09-09T09:32:59;34.90;;;21.15;;
32918;SDS011;19280;42.646;21.150;2022-09-09T09:35:27;27.20;;;17.48;;
32918;SDS011;19280;42.646;21.150;2022-09-09T09:37:54;29.05;;;18.65;;
32918;SDS011;19280;42.646;21.150;2022-09-09T09:40:22;29.67;;;19.58;;
32918;SDS011;19280;42.646;21.150;2022-09-09T09:42:53;32.25;;;18.98;;
32918;SDS011;19280;42.646;21.150;2022-09-09T09:45:25;29.98;;;19.08;;
32918;SDS011;19280;42.646;21.150;2022-09-09T09:48:12;28.55;;;19.65;;
32918;SDS011;19280;42.646;21.150;2022-09-09T09:51:02;33.47;;;18.42;;
32918;SDS011;19280;42.646;21.150;2022-09-09T09:53:29;32.10;;;18.02;;
32918;SDS011;19280;42.646;21.150;2022-09-09T09:55:58;29.20;;;19.25;;
32918;SDS011;19280;42.646;21.150;2022-09-09T09:58:26;35.38;;;18.45;;
32918;SDS011;19280;42.646;21.150;2022-09-09T10:00:54;32.08;;;17.85;;
32918;SDS011;19280;42.646;21.150;2022-09-09T10:03:22;25.23;;;15.18;;
32918;SDS011;19280;42.646;21.150;2022-09-09T10:05:49;23.45;;;14.82;;
32918;SDS011;19280;42.646;21.150;2022-09-09T10:08:17;24.20;;;16.00;;
32918;SDS011;19280;42.646;21.150;2022-09-09T10:13:36;29.90;;;18.45;;
32918;SDS011;19280;42.646;21.150;2022-09-09T10:18:59;35.70;;;19.05;;
32918;SDS011;19280;42.646;21.150;2022-09-09T10:21:37;29.02;;;19.45;;
32918;SDS011;19280;42.646;21.150;2022-09-09T10:29:32;34.45;;;18.65;;
32918;SDS011;19280;42.646;21.150;2022-09-09T10:34:47;32.78;;;20.10;;
32918;SDS011;19280;42.646;21.150;2022-09-09T10:37:25;39.20;;;16.63;;
32918;SDS011;19280;42.646;21.150;2022-09-09T10:40:00;31.85;;;18.15;;
32918;SDS011;19280;42.646;21.150;2022-09-09T10:42:30;35.55;;;17.60;;
32918;SDS011;19280;42.646;21.150;2022-09-09T10:45:01;29.73;;;18.10;;
32918;SDS011;19280;42.646;21.150;2022-09-09T10:50:11;30.77;;;17.75;;
32918;SDS011;19280;42.646;21.150;2022-09-09T10:52:54;28.80;;;16.15;;
32918;SDS011;19280;42.646;21.150;2022-09-09T10:55:27;26.88;;;16.85;;
32918;SDS011;19280;42.646;21.150;2022-09-09T10:57:58;34.05;;;16.88;;
32918;SDS011;19280;42.646;21.150;2022-09-09T11:00:38;28.67;;;15.73;;
32918;SDS011;19280;42.646;21.150;2022-09-09T11:03:06;23.55;;;14.50;;
32918;SDS011;19280;42.646;21.150;2022-09-09T11:13:09;26.50;;;15.18;;
32918;SDS011;19280;42.646;21.150;2022-09-09T11:18:04;31.27;;;17.02;;
32918;SDS011;19280;42.646;21.150;2022-09-09T11:20:31;26.15;;;14.82;;
32918;SDS011;19280;42.646;21.150;2022-09-09T11:23:21;30.35;;;15.60;;
32918;SDS011;19280;42.646;21.150;2022-09-09T11:25:48;31.55;;;15.02;;
32918;SDS011;19280;42.646;21.150;2022-09-09T11:38:47;27.83;;;14.77;;
32918;SDS011;19280;42.646;21.150;2022-09-09T11:41:16;27.63;;;13.90;;
32918;SDS011;19280;42.646;21.150;2022-09-09T11:43:44;27.20;;;12.45;;
32918;SDS011;19280;42.646;21.150;2022-09-09T11:46:12;24.90;;;12.35;;
32918;SDS011;19280;42.646;21.150;2022-09-09T11:48:41;22.90;;;10.68;;
32918;SDS011;19280;42.646;21.150;2022-09-09T11:51:13;26.73;;;10.85;;
32918;SDS011;19280;42.646;21.150;2022-09-09T11:53:55;21.23;;;11.80;;
32918;SDS011;19280;42.646;21.150;2022-09-09T11:56:31;16.98;;;10.60;;
32918;SDS011;19280;42.646;21.150;2022-09-09T12:44:05;22.17;;;10.27;;
32918;SDS011;19280;42.646;21.150;2022-09-09T12:53:06;15.15;;;9.90;;
32918;SDS011;19280;42.646;21.150;2022-09-09T13:48:09;13.23;;;6.97;;
32918;SDS011;19280;42.646;21.150;2022-09-09T14:07:40;20.63;;;6.75;;
32918;SDS011;19280;42.646;21.150;2022-09-09T14:23:27;18.52;;;7.32;;
32918;SDS011;19280;42.646;21.150;2022-09-09T14:38:46;15.43;;;7.70;;
32918;SDS011;19280;42.646;21.150;2022-09-09T14:41:14;17.92;;;7.88;;
32918;SDS011;19280;42.646;21.150;2022-09-09T14:43:45;15.48;;;7.32;;
32918;SDS011;19280;42.646;21.150;2022-09-09T14:46:14;14.18;;;7.88;;
32918;SDS011;19280;42.646;21.150;2022-09-09T14:48:42;14.23;;;7.55;;
32918;SDS011;19280;42.646;21.150;2022-09-09T14:51:18;16.20;;;8.60;;
32918;SDS011;19280;42.646;21.150;2022-09-09T14:53:46;15.20;;;7.65;;
32918;SDS011;19280;42.646;21.150;2022-09-09T14:56:17;17.77;;;6.82;;
32918;SDS011;19280;42.646;21.150;2022-09-09T14:58:44;11.05;;;6.53;;
32918;SDS011;19280;42.646;21.150;2022-09-09T15:01:13;11.95;;;6.30;;
32918;SDS011;19280;42.646;21.150;2022-09-09T15:03:42;11.82;;;6.22;;
32918;SDS011;19280;42.646;21.150;2022-09-09T15:06:11;18.20;;;6.93;;
32918;SDS011;19280;42.646;21.150;2022-09-09T15:08:39;16.00;;;7.05;;
32918;SDS011;19280;42.646;21.150;2022-09-09T15:11:07;12.40;;;7.18;;
32918;SDS011;19280;42.646;21.150;2022-09-09T15:13:34;19.35;;;7.13;;
32918;SDS011;19280;42.646;21.150;2022-09-09T15:16:07;16.48;;;8.05;;
32918;SDS011;19280;42.646;21.150;2022-09-09T15:18:34;31.73;;;14.82;;
32918;SDS011;19280;42.646;21.150;2022-09-09T15:21:05;19.80;;;11.88;;
32918;SDS011;19280;42.646;21.150;2022-09-09T15:23:32;15.18;;;9.40;;
32918;SDS011;19280;42.646;21.150;2022-09-09T15:26:00;17.15;;;8.55;;
32918;SDS011;19280;42.646;21.150;2022-09-09T15:28:27;16.67;;;8.60;;
32918;SDS011;19280;42.646;21.150;2022-09-09T15:30:54;22.20;;;8.93;;
32918;SDS011;19280;42.646;21.150;2022-09-09T15:33:23;16.52;;;8.77;;
32918;SDS011;19280;42.646;21.150;2022-09-09T15:35:50;18.58;;;10.32;;
32918;SDS011;19280;42.646;21.150;2022-09-09T15:38:17;16.55;;;10.27;;
32918;SDS011;19280;42.646;21.150;2022-09-09T15:40:52;26.88;;;11.82;;
32918;SDS011;19280;42.646;21.150;2022-09-09T15:43:21;22.83;;;11.43;;
32918;SDS011;19280;42.646;21.150;2022-09-09T15:45:49;15.57;;;10.43;;
32918;SDS011;19280;42.646;21.150;2022-09-09T15:48:19;16.10;;;8.90;;
32918;SDS011;19280;42.646;21.150;2022-09-09T15:50:58;17.77;;;8.77;;
32918;SDS011;19280;42.646;21.150;2022-09-09T15:53:30;17.73;;;8.50;;
32918;SDS011;19280;42.646;21.150;2022-09-09T15:55:59;22.25;;;8.20;;
32918;SDS011;19280;42.646;21.150;2022-09-09T15:58:30;15.70;;;7.88;;
32918;SDS011;19280;42.646;21.150;2022-09-09T16:01:03;17.70;;;8.10;;
32918;SDS011;19280;42.646;21.150;2022-09-09T16:03:37;19.33;;;8.52;;
32918;SDS011;19280;42.646;21.150;2022-09-09T16:06:05;19.25;;;8.85;;
32918;SDS011;19280;42.646;21.150;2022-09-09T16:08:33;18.30;;;8.88;;
32918;SDS011;19280;42.646;21.150;2022-09-09T16:11:10;13.73;;;7.82;;
32918;SDS011;19280;42.646;21.150;2022-09-09T16:13:38;26.30;;;15.80;;
32918;SDS011;19280;42.646;21.150;2022-09-09T16:16:06;29.60;;;18.90;;
32918;SDS011;19280;42.646;21.150;2022-09-09T16:18:34;26.08;;;9.95;;
32918;SDS011;19280;42.646;21.150;2022-09-09T16:21:01;18.75;;;10.77;;
32918;SDS011;19280;42.646;21.150;2022-09-09T16:23:28;21.80;;;10.27;;
32918;SDS011;19280;42.646;21.150;2022-09-09T16:25:55;15.05;;;8.40;;
32918;SDS011;19280;42.646;21.150;2022-09-09T16:28:22;23.85;;;8.80;;
32918;SDS011;19280;42.646;21.150;2022-09-09T16:30:49;20.08;;;9.38;;
32918;SDS011;19280;42.646;21.150;2022-09-09T16:33:16;18.25;;;10.60;;
32918;SDS011;19280;42.646;21.150;2022-09-09T16:35:43;20.15;;;9.30;;
32918;SDS011;19280;42.646;21.150;2022-09-09T16:38:10;14.82;;;8.43;;
32918;SDS011;19280;42.646;21.150;2022-09-09T16:40:37;20.73;;;8.93;;
32918;SDS011;19280;42.646;21.150;2022-09-09T16:43:05;19.25;;;7.85;;
32918;SDS011;19280;42.646;21.150;2022-09-09T16:45:32;24.08;;;9.63;;
32918;SDS011;19280;42.646;21.150;2022-09-09T16:47:59;20.08;;;8.27;;
32918;SDS011;19280;42.646;21.150;2022-09-09T16:50:26;25.08;;;8.05;;
32918;SDS011;19280;42.646;21.150;2022-09-09T16:52:53;14.65;;;7.55;;
32918;SDS011;19280;42.646;21.150;2022-09-09T16:55:20;19.33;;;8.10;;
32918;SDS011;19280;42.646;21.150;2022-09-09T16:57:46;18.13;;;7.47;;
32918;SDS011;19280;42.646;21.150;2022-09-09T17:00:15;11.02;;;7.25;;
32918;SDS011;19280;42.646;21.150;2022-09-09T17:02:42;16.38;;;7.88;;
32918;SDS011;19280;42.646;21.150;2022-09-09T17:05:10;24.05;;;7.55;;
32918;SDS011;19280;42.646;21.150;2022-09-09T17:07:41;23.30;;;8.77;;
32918;SDS011;19280;42.646;21.150;2022-09-09T17:10:09;18.02;;;8.20;;
32918;SDS011;19280;42.646;21.150;2022-09-09T17:12:36;18.15;;;8.05;;
32918;SDS011;19280;42.646;21.150;2022-09-09T17:15:03;24.77;;;9.82;;
32918;SDS011;19280;42.646;21.150;2022-09-09T17:17:30;16.33;;;8.15;;
32918;SDS011;19280;42.646;21.150;2022-09-09T17:19:58;21.73;;;10.43;;
32918;SDS011;19280;42.646;21.150;2022-09-09T17:22:25;21.02;;;11.57;;
32918;SDS011;19280;42.646;21.150;2022-09-09T17:24:52;24.52;;;10.65;;
32918;SDS011;19280;42.646;21.150;2022-09-09T17:27:20;16.98;;;8.75;;
32918;SDS011;19280;42.646;21.150;2022-09-09T17:29:48;19.60;;;9.98;;
32918;SDS011;19280;42.646;21.150;2022-09-09T17:32:14;20.95;;;9.30;;
32918;SDS011;19280;42.646;21.150;2022-09-09T17:34:41;25.13;;;9.35;;
32918;SDS011;19280;42.646;21.150;2022-09-09T17:37:10;23.92;;;9.57;;
32918;SDS011;19280;42.646;21.150;2022-09-09T17:39:37;34.70;;;19.70;;
32918;SDS011;19280;42.646;21.150;2022-09-09T17:42:04;21.35;;;9.98;;
32918;SDS011;19280;42.646;21.150;2022-09-09T17:44:33;17.58;;;9.68;;
32918;SDS011;19280;42.646;21.150;2022-09-09T17:47:00;30.00;;;11.25;;
32918;SDS011;19280;42.646;21.150;2022-09-09T17:49:29;22.73;;;10.80;;
32918;SDS011;19280;42.646;21.150;2022-09-09T17:51:56;22.77;;;10.07;;
32918;SDS011;19280;42.646;21.150;2022-09-09T17:54:22;22.23;;;11.15;;
32918;SDS011;19280;42.646;21.150;2022-09-09T17:56:49;31.73;;;11.45;;
32918;SDS011;19280;42.646;21.150;2022-09-09T17:59:17;27.02;;;10.88;;
32918;SDS011;19280;42.646;21.150;2022-09-09T18:01:44;20.13;;;10.48;;
32918;SDS011;19280;42.646;21.150;2022-09-09T18:04:12;26.63;;;10.70;;
32918;SDS011;19280;42.646;21.150;2022-09-09T18:06:43;25.55;;;10.63;;
32918;SDS011;19280;42.646;21.150;2022-09-09T18:09:12;24.45;;;11.40;;
32918;SDS011;19280;42.646;21.150;2022-09-09T18:11:40;45.88;;;13.93;;
32918;SDS011;19280;42.646;21.150;2022-09-09T18:14:09;41.85;;;13.63;;
32918;SDS011;19280;42.646;21.150;2022-09-09T18:16:37;31.92;;;11.50;;
32918;SDS011;19280;42.646;21.150;2022-09-09T18:19:04;37.80;;;11.38;;
32918;SDS011;19280;42.646;21.150;2022-09-09T18:21:32;35.38;;;13.65;;
32918;SDS011;19280;42.646;21.150;2022-09-09T18:24:00;38.67;;;14.80;;
32918;SDS011;19280;42.646;21.150;2022-09-09T18:26:27;37.08;;;12.02;;
32918;SDS011;19280;42.646;21.150;2022-09-09T18:28:55;40.95;;;11.77;;
32918;SDS011;19280;42.646;21.150;2022-09-09T18:31:24;38.90;;;13.90;;
32918;SDS011;19280;42.646;21.150;2022-09-09T18:33:53;38.08;;;14.30;;
32918;SDS011;19280;42.646;21.150;2022-09-09T18:36:22;29.60;;;12.80;;